sensor_id;sensor_type;location;lat;lon;timestamp;P1;durP1;ratioP1;P2;durP2;ratioP2
60464;SDS011;46314;52.392;9.758;2023-06-19T00:00:00;6.53;;;5.93;;
60464;SDS011;46314;52.392;9.758;2023-06-19T00:02:27;6.43;;;5.80;;
60464;SDS011;46314;52.392;9.758;2023-06-19T00:04:53;6.57;;;5.93;;
60464;SDS011;46314;52.392;9.758;2023-06-19T00:07:20;7.13;;;6.28;;
60464;SDS011;46314;52.392;9.758;2023-06-19T00:09:46;6.97;;;6.03;;
60464;SDS011;46314;52.392;9.758;2023-06-19T00:12:13;7.28;;;6.57;;
60464;SDS011;46314;52.392;9.758;2023-06-19T00:14:39;7.03;;;6.30;;
60464;SDS011;46314;52.392;9.758;2023-06-19T00:17:07;6.75;;;6.15;;
60464;SDS011;46314;52.392;9.758;2023-06-19T00:19:33;6.22;;;5.68;;
60464;SDS011;46314;52.392;9.758;2023-06-19T00:22:00;6.50;;;5.90;;
60464;SDS011;46314;52.392;9.758;2023-06-19T00:24:26;6.68;;;5.63;;
60464;SDS011;46314;52.392;9.758;2023-06-19T00:26:53;6.90;;;6.15;;
60464;SDS011;46314;52.392;9.758;2023-06-19T00:29:19;7.50;;;5.95;;
60464;SDS011;46314;52.392;9.758;2023-06-19T00:31:46;6.47;;;5.88;;
60464;SDS011;46314;52.392;9.758;2023-06-19T00:34:13;6.60;;;6.00;;
60464;SDS011;46314;52.392;9.758;2023-06-19T00:36:40;6.38;;;5.88;;
60464;SDS011;46314;52.392;9.758;2023-06-19T00:39:07;6.80;;;5.88;;
60464;SDS011;46314;52.392;9.758;2023-06-19T00:41:34;8.45;;;6.20;;
60464;SDS011;46314;52.392;9.758;2023-06-19T00:44:01;6.43;;;5.82;;
60464;SDS011;46314;52.392;9.758;2023-06-19T00:46:28;7.03;;;6.40;;
60464;SDS011;46314;52.392;9.758;2023-06-19T00:48:54;7.53;;;5.85;;
60464;SDS011;46314;52.392;9.758;2023-06-19T00:51:22;7.80;;;7.00;;
60464;SDS011;46314;52.392;9.758;2023-06-19T00:53:49;7.53;;;6.00;;
60464;SDS011;46314;52.392;9.758;2023-06-19T00:56:15;7.03;;;6.32;;
60464;SDS011;46314;52.392;9.758;2023-06-19T00:58:42;6.80;;;5.45;;
60464;SDS011;46314;52.392;9.758;2023-06-19T01:01:08;6.53;;;5.93;;
60464;SDS011;46314;52.392;9.758;2023-06-19T01:03:35;6.25;;;5.65;;
60464;SDS011;46314;52.392;9.758;2023-06-19T01:06:02;6.60;;;5.95;;
60464;SDS011;46314;52.392;9.758;2023-06-19T01:08:40;7.18;;;6.45;;
60464;SDS011;46314;52.392;9.758;2023-06-19T01:11:09;9.80;;;6.13;;
60464;SDS011;46314;52.392;9.758;2023-06-19T01:13:53;8.02;;;6.25;;
60464;SDS011;46314;52.392;9.758;2023-06-19T01:16:22;7.82;;;5.70;;
60464;SDS011;46314;52.392;9.758;2023-06-19T01:18:49;6.07;;;5.53;;
60464;SDS011;46314;52.392;9.758;2023-06-19T01:21:17;6.55;;;5.93;;
60464;SDS011;46314;52.392;9.758;2023-06-19T01:23:45;6.53;;;5.88;;
60464;SDS011;46314;52.392;9.758;2023-06-19T01:26:12;6.57;;;5.97;;
60464;SDS011;46314;52.392;9.758;2023-06-19T01:28:40;6.78;;;6.07;;
60464;SDS011;46314;52.392;9.758;2023-06-19T01:31:10;6.90;;;6.25;;
60464;SDS011;46314;52.392;9.758;2023-06-19T01:33:39;6.20;;;5.47;;
60464;SDS011;46314;52.392;9.758;2023-06-19T01:36:08;6.20;;;5.63;;
60464;SDS011;46314;52.392;9.758;2023-06-19T01:38:36;6.93;;;6.20;;
60464;SDS011;46314;52.392;9.758;2023-06-19T01:41:06;6.70;;;6.10;;
60464;SDS011;46314;52.392;9.758;2023-06-19T01:43:34;9.57;;;5.97;;
60464;SDS011;46314;52.392;9.758;2023-06-19T01:46:01;6.57;;;5.78;;
60464;SDS011;46314;52.392;9.758;2023-06-19T01:48:28;6.15;;;5.65;;
60464;SDS011;46314;52.392;9.758;2023-06-19T01:50:55;6.65;;;5.95;;
60464;SDS011;46314;52.392;9.758;2023-06-19T01:53:22;6.45;;;5.95;;
60464;SDS011;46314;52.392;9.758;2023-06-19T01:55:48;7.30;;;5.93;;
60464;SDS011;46314;52.392;9.758;2023-06-19T01:58:16;6.70;;;6.00;;
60464;SDS011;46314;52.392;9.758;2023-06-19T02:00:43;6.75;;;5.90;;
60464;SDS011;46314;52.392;9.758;2023-06-19T02:03:10;6.68;;;6.07;;
60464;SDS011;46314;52.392;9.758;2023-06-19T02:05:36;6.82;;;6.22;;
60464;SDS011;46314;52.392;9.758;2023-06-19T02:08:03;7.13;;;6.47;;
60464;SDS011;46314;52.392;9.758;2023-06-19T02:10:30;6.55;;;5.95;;
60464;SDS011;46314;52.392;9.758;2023-06-19T02:12:56;6.75;;;6.05;;
60464;SDS011;46314;52.392;9.758;2023-06-19T02:15:25;7.22;;;6.53;;
60464;SDS011;46314;52.392;9.758;2023-06-19T02:17:53;6.13;;;5.55;;
60464;SDS011;46314;52.392;9.758;2023-06-19T02:20:20;7.00;;;6.25;;
60464;SDS011;46314;52.392;9.758;2023-06-19T02:22:47;9.25;;;6.47;;
60464;SDS011;46314;52.392;9.758;2023-06-19T02:25:13;7.88;;;6.03;;
60464;SDS011;46314;52.392;9.758;2023-06-19T02:27:40;8.38;;;6.18;;
60464;SDS011;46314;52.392;9.758;2023-06-19T02:30:07;8.00;;;6.43;;
60464;SDS011;46314;52.392;9.758;2023-06-19T02:32:35;5.55;;;5.03;;
60464;SDS011;46314;52.392;9.758;2023-06-19T02:35:02;7.10;;;6.40;;
60464;SDS011;46314;52.392;9.758;2023-06-19T02:37:28;6.85;;;5.57;;
60464;SDS011;46314;52.392;9.758;2023-06-19T02:39:55;5.97;;;5.47;;
60464;SDS011;46314;52.392;9.758;2023-06-19T02:42:21;5.88;;;5.38;;
60464;SDS011;46314;52.392;9.758;2023-06-19T02:44:47;6.13;;;5.45;;
60464;SDS011;46314;52.392;9.758;2023-06-19T02:47:14;7.00;;;6.30;;
60464;SDS011;46314;52.392;9.758;2023-06-19T02:49:42;7.65;;;5.85;;
60464;SDS011;46314;52.392;9.758;2023-06-19T02:52:08;6.40;;;5.80;;
60464;SDS011;46314;52.392;9.758;2023-06-19T02:54:34;6.80;;;6.07;;
60464;SDS011;46314;52.392;9.758;2023-06-19T02:57:01;6.65;;;5.88;;
60464;SDS011;46314;52.392;9.758;2023-06-19T02:59:27;6.45;;;5.72;;
60464;SDS011;46314;52.392;9.758;2023-06-19T03:01:54;6.35;;;5.82;;
60464;SDS011;46314;52.392;9.758;2023-06-19T03:04:20;6.57;;;5.97;;
60464;SDS011;46314;52.392;9.758;2023-06-19T03:06:48;6.28;;;5.75;;
60464;SDS011;46314;52.392;9.758;2023-06-19T03:09:14;6.45;;;5.85;;
60464;SDS011;46314;52.392;9.758;2023-06-19T03:11:41;6.10;;;5.50;;
60464;SDS011;46314;52.392;9.758;2023-06-19T03:14:08;6.43;;;5.65;;
60464;SDS011;46314;52.392;9.758;2023-06-19T03:16:34;6.40;;;5.90;;
60464;SDS011;46314;52.392;9.758;2023-06-19T03:19:01;6.50;;;5.90;;
60464;SDS011;46314;52.392;9.758;2023-06-19T03:21:28;6.68;;;5.55;;
60464;SDS011;46314;52.392;9.758;2023-06-19T03:23:56;6.68;;;5.97;;
60464;SDS011;46314;52.392;9.758;2023-06-19T03:26:23;6.20;;;5.70;;
60464;SDS011;46314;52.392;9.758;2023-06-19T03:28:49;6.50;;;5.70;;
60464;SDS011;46314;52.392;9.758;2023-06-19T03:31:16;5.95;;;5.45;;
60464;SDS011;46314;52.392;9.758;2023-06-19T03:33:42;6.85;;;5.97;;
60464;SDS011;46314;52.392;9.758;2023-06-19T03:36:09;6.38;;;5.78;;
60464;SDS011;46314;52.392;9.758;2023-06-19T03:38:35;6.50;;;5.97;;
60464;SDS011;46314;52.392;9.758;2023-06-19T03:41:03;6.35;;;5.72;;
60464;SDS011;46314;52.392;9.758;2023-06-19T03:43:30;6.35;;;5.65;;
60464;SDS011;46314;52.392;9.758;2023-06-19T03:45:56;6.80;;;6.10;;
60464;SDS011;46314;52.392;9.758;2023-06-19T03:48:23;6.32;;;5.78;;
60464;SDS011;46314;52.392;9.758;2023-06-19T03:50:49;7.07;;;6.40;;
60464;SDS011;46314;52.392;9.758;2023-06-19T03:53:16;7.43;;;6.05;;
60464;SDS011;46314;52.392;9.758;2023-06-19T03:55:42;6.35;;;5.75;;
60464;SDS011;46314;52.392;9.758;2023-06-19T03:58:10;6.53;;;5.93;;
60464;SDS011;46314;52.392;9.758;2023-06-19T04:00:36;6.72;;;5.78;;
60464;SDS011;46314;52.392;9.758;2023-06-19T04:03:03;6.63;;;6.03;;
60464;SDS011;46314;52.392;9.758;2023-06-19T04:05:29;5.65;;;5.15;;
60464;SDS011;46314;52.392;9.758;2023-06-19T04:07:56;6.30;;;5.70;;
60464;SDS011;46314;52.392;9.758;2023-06-19T04:10:22;6.40;;;5.32;;
60464;SDS011;46314;52.392;9.758;2023-06-19T04:12:49;6.72;;;6.13;;
60464;SDS011;46314;52.392;9.758;2023-06-19T04:15:17;6.13;;;5.47;;
60464;SDS011;46314;52.392;9.758;2023-06-19T04:17:45;6.65;;;6.05;;
60464;SDS011;46314;52.392;9.758;2023-06-19T04:20:11;7.38;;;5.93;;
60464;SDS011;46314;52.392;9.758;2023-06-19T04:22:38;6.00;;;5.40;;
60464;SDS011;46314;52.392;9.758;2023-06-19T04:25:05;6.10;;;5.57;;
60464;SDS011;46314;52.392;9.758;2023-06-19T04:27:32;6.55;;;5.85;;
60464;SDS011;46314;52.392;9.758;2023-06-19T04:30:00;6.45;;;5.82;;
60464;SDS011;46314;52.392;9.758;2023-06-19T04:32:28;6.68;;;5.95;;
60464;SDS011;46314;52.392;9.758;2023-06-19T04:34:54;6.15;;;5.65;;
60464;SDS011;46314;52.392;9.758;2023-06-19T04:37:21;6.70;;;6.10;;
60464;SDS011;46314;52.392;9.758;2023-06-19T04:39:47;6.40;;;5.70;;
60464;SDS011;46314;52.392;9.758;2023-06-19T04:42:15;7.07;;;6.28;;
60464;SDS011;46314;52.392;9.758;2023-06-19T04:44:43;6.43;;;5.47;;
60464;SDS011;46314;52.392;9.758;2023-06-19T04:47:09;6.97;;;6.15;;
60464;SDS011;46314;52.392;9.758;2023-06-19T04:49:37;7.07;;;6.03;;
60464;SDS011;46314;52.392;9.758;2023-06-19T04:52:04;7.70;;;5.93;;
60464;SDS011;46314;52.392;9.758;2023-06-19T04:54:31;15.52;;;6.57;;
60464;SDS011;46314;52.392;9.758;2023-06-19T04:56:57;7.20;;;6.50;;
60464;SDS011;46314;52.392;9.758;2023-06-19T04:59:24;6.05;;;5.55;;
60464;SDS011;46314;52.392;9.758;2023-06-19T05:01:50;8.05;;;6.20;;
60464;SDS011;46314;52.392;9.758;2023-06-19T05:04:17;7.20;;;6.50;;
60464;SDS011;46314;52.392;9.758;2023-06-19T05:06:44;10.88;;;6.25;;
60464;SDS011;46314;52.392;9.758;2023-06-19T05:09:11;9.00;;;7.20;;
60464;SDS011;46314;52.392;9.758;2023-06-19T05:11:37;8.23;;;6.72;;
60464;SDS011;46314;52.392;9.758;2023-06-19T05:14:04;8.50;;;6.18;;
60464;SDS011;46314;52.392;9.758;2023-06-19T05:16:30;7.47;;;6.75;;
60464;SDS011;46314;52.392;9.758;2023-06-19T05:19:01;7.05;;;6.38;;
60464;SDS011;46314;52.392;9.758;2023-06-19T05:21:28;7.65;;;6.88;;
60464;SDS011;46314;52.392;9.758;2023-06-19T05:23:56;7.80;;;7.00;;
60464;SDS011;46314;52.392;9.758;2023-06-19T05:26:23;8.02;;;6.65;;
60464;SDS011;46314;52.392;9.758;2023-06-19T05:28:49;8.00;;;7.10;;
60464;SDS011;46314;52.392;9.758;2023-06-19T05:31:16;8.35;;;6.60;;
60464;SDS011;46314;52.392;9.758;2023-06-19T05:33:42;7.97;;;6.55;;
60464;SDS011;46314;52.392;9.758;2023-06-19T05:36:09;7.68;;;6.97;;
60464;SDS011;46314;52.392;9.758;2023-06-19T05:38:35;10.70;;;7.07;;
60464;SDS011;46314;52.392;9.758;2023-06-19T05:41:03;9.43;;;7.70;;
60464;SDS011;46314;52.392;9.758;2023-06-19T05:43:29;7.65;;;6.88;;
60464;SDS011;46314;52.392;9.758;2023-06-19T05:45:56;8.13;;;6.90;;
60464;SDS011;46314;52.392;9.758;2023-06-19T05:48:22;7.32;;;6.25;;
60464;SDS011;46314;52.392;9.758;2023-06-19T05:50:49;8.15;;;7.35;;
60464;SDS011;46314;52.392;9.758;2023-06-19T05:53:15;8.25;;;7.45;;
60464;SDS011;46314;52.392;9.758;2023-06-19T05:55:42;11.82;;;7.18;;
60464;SDS011;46314;52.392;9.758;2023-06-19T05:58:10;7.32;;;6.60;;
60464;SDS011;46314;52.392;9.758;2023-06-19T06:00:36;9.50;;;7.15;;
60464;SDS011;46314;52.392;9.758;2023-06-19T06:03:03;9.23;;;7.40;;
60464;SDS011;46314;52.392;9.758;2023-06-19T06:05:29;8.43;;;7.20;;
60464;SDS011;46314;52.392;9.758;2023-06-19T06:07:56;8.90;;;7.70;;
60464;SDS011;46314;52.392;9.758;2023-06-19T06:10:22;9.07;;;7.40;;
60464;SDS011;46314;52.392;9.758;2023-06-19T06:12:50;7.57;;;6.75;;
60464;SDS011;46314;52.392;9.758;2023-06-19T06:15:19;8.77;;;7.00;;
60464;SDS011;46314;52.392;9.758;2023-06-19T06:17:46;8.27;;;7.00;;
60464;SDS011;46314;52.392;9.758;2023-06-19T06:20:13;9.20;;;7.50;;
60464;SDS011;46314;52.392;9.758;2023-06-19T06:22:39;9.82;;;6.97;;
60464;SDS011;46314;52.392;9.758;2023-06-19T06:25:07;7.13;;;6.43;;
60464;SDS011;46314;52.392;9.758;2023-06-19T06:27:38;9.50;;;6.90;;
60464;SDS011;46314;52.392;9.758;2023-06-19T06:30:05;10.65;;;7.25;;
60464;SDS011;46314;52.392;9.758;2023-06-19T06:32:33;9.23;;;7.13;;
60464;SDS011;46314;52.392;9.758;2023-06-19T06:35:00;12.05;;;7.57;;
60464;SDS011;46314;52.392;9.758;2023-06-19T06:37:27;10.20;;;7.88;;
60464;SDS011;46314;52.392;9.758;2023-06-19T06:39:53;11.02;;;7.28;;
60464;SDS011;46314;52.392;9.758;2023-06-19T06:42:20;8.60;;;6.88;;
60464;SDS011;46314;52.392;9.758;2023-06-19T06:44:46;7.45;;;6.65;;
60464;SDS011;46314;52.392;9.758;2023-06-19T06:47:13;8.73;;;7.93;;
60464;SDS011;46314;52.392;9.758;2023-06-19T06:49:40;11.50;;;7.55;;
60464;SDS011;46314;52.392;9.758;2023-06-19T06:52:07;9.30;;;6.95;;
60464;SDS011;46314;52.392;9.758;2023-06-19T06:54:33;9.82;;;7.55;;
60464;SDS011;46314;52.392;9.758;2023-06-19T06:57:00;9.02;;;6.55;;
60464;SDS011;46314;52.392;9.758;2023-06-19T06:59:27;12.52;;;6.97;;
60464;SDS011;46314;52.392;9.758;2023-06-19T07:01:54;9.18;;;7.75;;
60464;SDS011;46314;52.392;9.758;2023-06-19T07:04:21;7.88;;;7.07;;
60464;SDS011;46314;52.392;9.758;2023-06-19T07:06:49;9.65;;;8.05;;
60464;SDS011;46314;52.392;9.758;2023-06-19T07:09:15;8.57;;;7.32;;
60464;SDS011;46314;52.392;9.758;2023-06-19T07:11:42;7.65;;;6.82;;
60464;SDS011;46314;52.392;9.758;2023-06-19T07:14:08;13.25;;;7.97;;
60464;SDS011;46314;52.392;9.758;2023-06-19T07:16:34;13.18;;;7.85;;
60464;SDS011;46314;52.392;9.758;2023-06-19T07:19:01;10.07;;;7.65;;
60464;SDS011;46314;52.392;9.758;2023-06-19T07:21:28;8.10;;;6.93;;
60464;SDS011;46314;52.392;9.758;2023-06-19T07:23:56;9.75;;;7.60;;
60464;SDS011;46314;52.392;9.758;2023-06-19T07:26:23;8.32;;;7.53;;
60464;SDS011;46314;52.392;9.758;2023-06-19T07:28:50;8.48;;;7.45;;
60464;SDS011;46314;52.392;9.758;2023-06-19T07:31:16;9.10;;;7.70;;
60464;SDS011;46314;52.392;9.758;2023-06-19T07:33:43;9.95;;;7.38;;
60464;SDS011;46314;52.392;9.758;2023-06-19T07:36:09;8.82;;;7.40;;
60464;SDS011;46314;52.392;9.758;2023-06-19T07:38:36;8.52;;;7.70;;
60464;SDS011;46314;52.392;9.758;2023-06-19T07:41:04;8.13;;;7.43;;
60464;SDS011;46314;52.392;9.758;2023-06-19T07:43:30;8.95;;;8.13;;
60464;SDS011;46314;52.392;9.758;2023-06-19T07:45:56;9.55;;;7.40;;
60464;SDS011;46314;52.392;9.758;2023-06-19T07:48:23;8.73;;;7.63;;
60464;SDS011;46314;52.392;9.758;2023-06-19T07:50:50;8.35;;;7.50;;
60464;SDS011;46314;52.392;9.758;2023-06-19T07:53:16;8.73;;;7.93;;
60464;SDS011;46314;52.392;9.758;2023-06-19T07:55:43;8.60;;;7.75;;
60464;SDS011;46314;52.392;9.758;2023-06-19T07:58:11;8.90;;;8.00;;
60464;SDS011;46314;52.392;9.758;2023-06-19T08:00:37;9.23;;;8.18;;
60464;SDS011;46314;52.392;9.758;2023-06-19T08:03:04;9.88;;;9.00;;
60464;SDS011;46314;52.392;9.758;2023-06-19T08:05:31;8.68;;;7.95;;
60464;SDS011;46314;52.392;9.758;2023-06-19T08:07:58;9.35;;;8.35;;
60464;SDS011;46314;52.392;9.758;2023-06-19T08:10:25;8.82;;;8.05;;
60464;SDS011;46314;52.392;9.758;2023-06-19T08:12:51;8.50;;;7.72;;
60464;SDS011;46314;52.392;9.758;2023-06-19T08:15:21;9.73;;;8.18;;
60464;SDS011;46314;52.392;9.758;2023-06-19T08:17:49;10.32;;;9.43;;
60464;SDS011;46314;52.392;9.758;2023-06-19T08:20:16;9.85;;;8.45;;
60464;SDS011;46314;52.392;9.758;2023-06-19T08:22:42;9.55;;;8.70;;
60464;SDS011;46314;52.392;9.758;2023-06-19T08:25:09;8.45;;;7.68;;
60464;SDS011;46314;52.392;9.758;2023-06-19T08:27:35;8.57;;;7.68;;
60464;SDS011;46314;52.392;9.758;2023-06-19T08:30:02;9.38;;;8.48;;
60464;SDS011;46314;52.392;9.758;2023-06-19T08:32:30;10.82;;;7.97;;
60464;SDS011;46314;52.392;9.758;2023-06-19T08:34:57;8.52;;;7.55;;
60464;SDS011;46314;52.392;9.758;2023-06-19T08:37:23;8.25;;;7.47;;
60464;SDS011;46314;52.392;9.758;2023-06-19T08:39:50;7.93;;;7.20;;
60464;SDS011;46314;52.392;9.758;2023-06-19T08:42:16;8.02;;;7.32;;
60464;SDS011;46314;52.392;9.758;2023-06-19T08:44:43;8.00;;;7.22;;
60464;SDS011;46314;52.392;9.758;2023-06-19T08:47:09;9.35;;;7.57;;
60464;SDS011;46314;52.392;9.758;2023-06-19T08:49:37;9.52;;;7.18;;
60464;SDS011;46314;52.392;9.758;2023-06-19T08:52:04;7.78;;;7.07;;
60464;SDS011;46314;52.392;9.758;2023-06-19T08:54:31;7.13;;;6.30;;
60464;SDS011;46314;52.392;9.758;2023-06-19T08:56:59;7.40;;;6.75;;
60464;SDS011;46314;52.392;9.758;2023-06-19T08:59:27;8.35;;;7.55;;
60464;SDS011;46314;52.392;9.758;2023-06-19T09:01:54;7.20;;;6.50;;
60464;SDS011;46314;52.392;9.758;2023-06-19T09:04:21;8.63;;;6.88;;
60464;SDS011;46314;52.392;9.758;2023-06-19T09:06:50;8.10;;;7.05;;
60464;SDS011;46314;52.392;9.758;2023-06-19T09:09:18;7.63;;;6.90;;
60464;SDS011;46314;52.392;9.758;2023-06-19T09:11:56;7.18;;;6.68;;
60464;SDS011;46314;52.392;9.758;2023-06-19T09:14:24;7.47;;;6.78;;
60464;SDS011;46314;52.392;9.758;2023-06-19T09:16:50;7.38;;;6.72;;
60464;SDS011;46314;52.392;9.758;2023-06-19T09:19:19;8.18;;;7.43;;
60464;SDS011;46314;52.392;9.758;2023-06-19T09:21:46;7.18;;;6.50;;
60464;SDS011;46314;52.392;9.758;2023-06-19T09:24:14;7.90;;;7.20;;
60464;SDS011;46314;52.392;9.758;2023-06-19T09:26:41;7.68;;;7.07;;
60464;SDS011;46314;52.392;9.758;2023-06-19T09:29:11;8.15;;;7.40;;
60464;SDS011;46314;52.392;9.758;2023-06-19T09:31:42;7.97;;;6.95;;
60464;SDS011;46314;52.392;9.758;2023-06-19T09:34:09;7.03;;;6.32;;
60464;SDS011;46314;52.392;9.758;2023-06-19T09:36:35;8.10;;;7.07;;
60464;SDS011;46314;52.392;9.758;2023-06-19T09:39:02;7.40;;;6.75;;
60464;SDS011;46314;52.392;9.758;2023-06-19T09:41:30;11.88;;;7.05;;
60464;SDS011;46314;52.392;9.758;2023-06-19T09:43:58;7.28;;;6.57;;
60464;SDS011;46314;52.392;9.758;2023-06-19T09:46:26;7.22;;;6.53;;
60464;SDS011;46314;52.392;9.758;2023-06-19T09:48:56;7.40;;;6.78;;
60464;SDS011;46314;52.392;9.758;2023-06-19T09:51:27;6.70;;;6.10;;
60464;SDS011;46314;52.392;9.758;2023-06-19T09:53:56;7.43;;;6.40;;
60464;SDS011;46314;52.392;9.758;2023-06-19T09:56:23;7.50;;;6.32;;
60464;SDS011;46314;52.392;9.758;2023-06-19T09:58:52;6.97;;;6.40;;
60464;SDS011;46314;52.392;9.758;2023-06-19T10:01:20;6.70;;;6.10;;
60464;SDS011;46314;52.392;9.758;2023-06-19T10:03:49;6.65;;;5.95;;
60464;SDS011;46314;52.392;9.758;2023-06-19T10:06:16;7.00;;;6.38;;
60464;SDS011;46314;52.392;9.758;2023-06-19T10:08:43;7.15;;;6.55;;
60464;SDS011;46314;52.392;9.758;2023-06-19T10:11:11;7.35;;;6.70;;
60464;SDS011;46314;52.392;9.758;2023-06-19T10:13:39;6.53;;;5.88;;
60464;SDS011;46314;52.392;9.758;2023-06-19T10:16:12;6.90;;;5.93;;
60464;SDS011;46314;52.392;9.758;2023-06-19T10:18:46;6.68;;;6.03;;
60464;SDS011;46314;52.392;9.758;2023-06-19T10:21:17;8.45;;;5.60;;
60464;SDS011;46314;52.392;9.758;2023-06-19T10:23:51;6.45;;;5.72;;
60464;SDS011;46314;52.392;9.758;2023-06-19T10:26:20;7.20;;;6.50;;
60464;SDS011;46314;52.392;9.758;2023-06-19T10:28:47;7.00;;;6.10;;
60464;SDS011;46314;52.392;9.758;2023-06-19T10:31:14;6.07;;;5.57;;
60464;SDS011;46314;52.392;9.758;2023-06-19T10:33:41;6.28;;;5.20;;
60464;SDS011;46314;52.392;9.758;2023-06-19T10:36:13;10.85;;;5.40;;
60464;SDS011;46314;52.392;9.758;2023-06-19T10:38:41;6.82;;;5.25;;
60464;SDS011;46314;52.392;9.758;2023-06-19T10:41:13;6.35;;;5.85;;
60464;SDS011;46314;52.392;9.758;2023-06-19T10:43:41;7.15;;;5.43;;
60464;SDS011;46314;52.392;9.758;2023-06-19T10:46:07;5.80;;;5.28;;
60464;SDS011;46314;52.392;9.758;2023-06-19T10:48:35;6.75;;;5.82;;
60464;SDS011;46314;52.392;9.758;2023-06-19T10:51:02;5.60;;;5.10;;
60464;SDS011;46314;52.392;9.758;2023-06-19T10:53:29;5.47;;;4.97;;
60464;SDS011;46314;52.392;9.758;2023-06-19T10:55:58;7.75;;;5.20;;
60464;SDS011;46314;52.392;9.758;2023-06-19T10:58:25;5.28;;;4.88;;
60464;SDS011;46314;52.392;9.758;2023-06-19T11:00:52;5.10;;;4.70;;
60464;SDS011;46314;52.392;9.758;2023-06-19T11:03:19;6.30;;;4.50;;
60464;SDS011;46314;52.392;9.758;2023-06-19T11:05:48;4.97;;;4.55;;
60464;SDS011;46314;52.392;9.758;2023-06-19T11:08:17;5.28;;;4.55;;
60464;SDS011;46314;52.392;9.758;2023-06-19T11:10:44;6.15;;;4.35;;
60464;SDS011;46314;52.392;9.758;2023-06-19T11:13:13;6.47;;;5.03;;
60464;SDS011;46314;52.392;9.758;2023-06-19T11:15:40;4.63;;;4.07;;
60464;SDS011;46314;52.392;9.758;2023-06-19T11:18:07;4.15;;;3.85;;
60464;SDS011;46314;52.392;9.758;2023-06-19T11:20:42;4.63;;;3.60;;
60464;SDS011;46314;52.392;9.758;2023-06-19T11:23:11;4.97;;;4.10;;
60464;SDS011;46314;52.392;9.758;2023-06-19T11:25:38;4.55;;;4.00;;
60464;SDS011;46314;52.392;9.758;2023-06-19T11:28:10;4.57;;;3.92;;
60464;SDS011;46314;52.392;9.758;2023-06-19T11:30:37;8.48;;;4.35;;
60464;SDS011;46314;52.392;9.758;2023-06-19T11:33:03;4.80;;;4.03;;
60464;SDS011;46314;52.392;9.758;2023-06-19T11:35:40;4.38;;;3.97;;
60464;SDS011;46314;52.392;9.758;2023-06-19T11:38:07;3.90;;;3.60;;
60464;SDS011;46314;52.392;9.758;2023-06-19T11:40:40;5.30;;;3.72;;
60464;SDS011;46314;52.392;9.758;2023-06-19T11:43:08;4.00;;;3.70;;
60464;SDS011;46314;52.392;9.758;2023-06-19T11:45:44;4.05;;;3.60;;
60464;SDS011;46314;52.392;9.758;2023-06-19T11:48:11;4.30;;;3.30;;
60464;SDS011;46314;52.392;9.758;2023-06-19T11:50:37;4.07;;;3.42;;
60464;SDS011;46314;52.392;9.758;2023-06-19T11:53:04;3.92;;;3.63;;
60464;SDS011;46314;52.392;9.758;2023-06-19T11:55:30;3.95;;;3.63;;
60464;SDS011;46314;52.392;9.758;2023-06-19T11:57:58;3.55;;;3.25;;
60464;SDS011;46314;52.392;9.758;2023-06-19T12:00:25;5.22;;;3.30;;
60464;SDS011;46314;52.392;9.758;2023-06-19T12:02:52;3.75;;;3.45;;
60464;SDS011;46314;52.392;9.758;2023-06-19T12:05:18;3.20;;;3.00;;
60464;SDS011;46314;52.392;9.758;2023-06-19T12:07:45;4.10;;;3.70;;
60464;SDS011;46314;52.392;9.758;2023-06-19T12:10:11;4.95;;;4.38;;
60464;SDS011;46314;52.392;9.758;2023-06-19T12:12:38;4.55;;;4.15;;
60464;SDS011;46314;52.392;9.758;2023-06-19T12:15:06;8.40;;;4.60;;
60464;SDS011;46314;52.392;9.758;2023-06-19T12:17:33;6.05;;;4.20;;
60464;SDS011;46314;52.392;9.758;2023-06-19T12:20:00;4.60;;;4.22;;
60464;SDS011;46314;52.392;9.758;2023-06-19T12:22:27;5.10;;;4.70;;
60464;SDS011;46314;52.392;9.758;2023-06-19T12:24:54;4.40;;;4.00;;
60464;SDS011;46314;52.392;9.758;2023-06-19T12:27:20;7.25;;;4.50;;
60464;SDS011;46314;52.392;9.758;2023-06-19T12:29:46;4.68;;;4.20;;
60464;SDS011;46314;52.392;9.758;2023-06-19T12:32:14;5.30;;;4.78;;
60464;SDS011;46314;52.392;9.758;2023-06-19T12:34:41;5.07;;;4.10;;
60464;SDS011;46314;52.392;9.758;2023-06-19T12:37:07;6.35;;;4.80;;
60464;SDS011;46314;52.392;9.758;2023-06-19T12:39:34;4.63;;;4.20;;
60464;SDS011;46314;52.392;9.758;2023-06-19T12:42:00;5.10;;;4.50;;
60464;SDS011;46314;52.392;9.758;2023-06-19T12:44:26;4.68;;;4.28;;
60464;SDS011;46314;52.392;9.758;2023-06-19T12:46:53;5.47;;;4.78;;
60464;SDS011;46314;52.392;9.758;2023-06-19T12:49:21;5.00;;;4.60;;
60464;SDS011;46314;52.392;9.758;2023-06-19T12:51:47;5.28;;;4.78;;
60464;SDS011;46314;52.392;9.758;2023-06-19T12:54:14;4.97;;;4.30;;
60464;SDS011;46314;52.392;9.758;2023-06-19T12:56:40;6.30;;;4.32;;
60464;SDS011;46314;52.392;9.758;2023-06-19T12:59:07;6.15;;;4.88;;
60464;SDS011;46314;52.392;9.758;2023-06-19T13:01:33;5.13;;;4.70;;
60464;SDS011;46314;52.392;9.758;2023-06-19T13:04:00;5.03;;;4.63;;
60464;SDS011;46314;52.392;9.758;2023-06-19T13:06:28;5.53;;;4.93;;
60464;SDS011;46314;52.392;9.758;2023-06-19T13:08:54;5.30;;;4.90;;
60464;SDS011;46314;52.392;9.758;2023-06-19T13:11:21;5.25;;;4.85;;
60464;SDS011;46314;52.392;9.758;2023-06-19T13:13:47;5.32;;;4.82;;
60464;SDS011;46314;52.392;9.758;2023-06-19T13:16:14;5.45;;;4.80;;
60464;SDS011;46314;52.392;9.758;2023-06-19T13:18:41;7.43;;;4.40;;
60464;SDS011;46314;52.392;9.758;2023-06-19T13:21:07;5.00;;;4.63;;
60464;SDS011;46314;52.392;9.758;2023-06-19T13:23:35;5.55;;;4.93;;
60464;SDS011;46314;52.392;9.758;2023-06-19T13:26:02;5.55;;;5.20;;
60464;SDS011;46314;52.392;9.758;2023-06-19T13:28:28;6.57;;;4.90;;
60464;SDS011;46314;52.392;9.758;2023-06-19T13:30:54;5.63;;;4.60;;
60464;SDS011;46314;52.392;9.758;2023-06-19T13:33:21;5.10;;;4.70;;
60464;SDS011;46314;52.392;9.758;2023-06-19T13:35:47;5.40;;;4.25;;
60464;SDS011;46314;52.392;9.758;2023-06-19T13:38:14;4.95;;;4.55;;
60464;SDS011;46314;52.392;9.758;2023-06-19T13:40:42;5.75;;;5.00;;
60464;SDS011;46314;52.392;9.758;2023-06-19T13:43:09;4.88;;;4.47;;
60464;SDS011;46314;52.392;9.758;2023-06-19T13:45:35;5.30;;;4.90;;
60464;SDS011;46314;52.392;9.758;2023-06-19T13:48:02;4.47;;;4.18;;
60464;SDS011;46314;52.392;9.758;2023-06-19T13:50:28;5.50;;;4.88;;
60464;SDS011;46314;52.392;9.758;2023-06-19T13:52:55;5.65;;;5.10;;
60464;SDS011;46314;52.392;9.758;2023-06-19T13:55:21;4.90;;;4.50;;
60464;SDS011;46314;52.392;9.758;2023-06-19T13:57:49;5.50;;;5.00;;
60464;SDS011;46314;52.392;9.758;2023-06-19T14:00:16;5.15;;;4.75;;
60464;SDS011;46314;52.392;9.758;2023-06-19T14:02:42;5.22;;;4.82;;
60464;SDS011;46314;52.392;9.758;2023-06-19T14:05:09;4.68;;;4.32;;
60464;SDS011;46314;52.392;9.758;2023-06-19T14:07:36;4.80;;;4.40;;
60464;SDS011;46314;52.392;9.758;2023-06-19T14:10:03;4.65;;;4.35;;
60464;SDS011;46314;52.392;9.758;2023-06-19T14:12:31;4.78;;;4.38;;
60464;SDS011;46314;52.392;9.758;2023-06-19T14:14:59;5.85;;;4.53;;
60464;SDS011;46314;52.392;9.758;2023-06-19T14:17:25;5.10;;;4.70;;
60464;SDS011;46314;52.392;9.758;2023-06-19T14:19:52;4.40;;;4.00;;
60464;SDS011;46314;52.392;9.758;2023-06-19T14:22:18;6.25;;;4.40;;
60464;SDS011;46314;52.392;9.758;2023-06-19T14:24:45;4.50;;;4.10;;
60464;SDS011;46314;52.392;9.758;2023-06-19T14:27:11;3.78;;;3.38;;
60464;SDS011;46314;52.392;9.758;2023-06-19T14:29:38;3.78;;;3.47;;
60464;SDS011;46314;52.392;9.758;2023-06-19T14:32:06;4.07;;;3.35;;
60464;SDS011;46314;52.392;9.758;2023-06-19T14:34:32;4.22;;;3.63;;
60464;SDS011;46314;52.392;9.758;2023-06-19T14:36:59;4.05;;;3.75;;
60464;SDS011;46314;52.392;9.758;2023-06-19T14:39:25;3.85;;;3.45;;
60464;SDS011;46314;52.392;9.758;2023-06-19T14:41:51;4.32;;;4.00;;
60464;SDS011;46314;52.392;9.758;2023-06-19T14:44:18;6.00;;;4.38;;
60464;SDS011;46314;52.392;9.758;2023-06-19T14:46:44;6.20;;;4.00;;